Manchester, Maine
Current Conditions -  °F | °C
As of 3:05 PM on Wednesday 28 Jan 2015 (Local Time) from KAUG Reporting Station
Haze Haze  
Wind Chill:   Ceiling: Unl
Heat Index: 20°   Visibility: 0.75mi
Dew Point:   Wind: 17mph
Humidity: 62%   Direction: 350°N
Pressure: 29.94"   Gusts: 30mph
Location:  44.32°N, 69.86°W
Report Text: KAUG 282005Z AUTO 35015G26KT 3/4SM HZ CLR M07/M13 A2994 RMK AO2 PK WND 34026/1955 T10671128
Loading
Personal Weather Stations






























Interactive Weather Map New forecast layout! Learn more

10-Day Weather Forecast

Advertisements
Track Severe Weather on mobile